Find Your NWS Forecast:
  Current Conditions
59.0°F  Colder 0.8°F than last hour.
Feels like 59°F
Cool
 
High Today of: 64.1°F @ 15:34
Low Today of: 48.3°F @ 07:25

Humidity: 67 % Increased 6.0% since last hour.
Dew Point: 48.1°F Increased 0.3°F since last hour.
Barometer: 30.025 inHg  
Wind:  NE @ 0.0
Gusting to: 1.0 mph
 
Rain Today: 0.08 in
Rain Yesterday: 0.03 in
This Month: 0.16 in
0 Days without rain
 
Solar: 0 W/m2
UV: 0.0    None 
 
  Sun / Moon
Sunrise: 10:41pm
Sunset: 10:48am
Moonset: 11:34am
Moonrise: 11:57pm
 
  California Extremes
High
99°F at El Centro Naf, CA
Low
19°F at Truckee-tahoe, CA
Precip
1.53in at Arcata, CA
 
 
  Fire Index
Fire Danger
 
 
  Oceanic Niño Index
Your browser does not support HTML5
Blue - La Niña , Red - El Niño
Last updated 50 hours 58 minutes ago
 
 
  Power Outages
 
 

Nearby METAR Reports - Updated every 30 to 60 minutes

KMYV - Marysville, California, USA
Distance from station: SE 6mi, 9km
Updated: Fri, 20-Oct-2017 5:53pm PDT
Clear
Clear
 Wind from SSE
Wind: SSE 6 mph , 9 km/h
Temperature: 59°F , 15°C
Dew Point: 46°F , 8°C
Humidity: 63%
Barometer: 30.08 inHg , 1018.6 hPa
Clouds: Clear
Visibility: 10 miles , 16 km
2017/10/21 00:53 KMYV 210053Z AUTO 16005KT 10SM CLR 15/08 A3008 RMK AO2 SLP190 T01500083
KCIC - Chico Municipal, California, USA
Distance from station: NNW 46mi, 74km
Updated: Fri, 20-Oct-2017 6:15pm PDT
Mostly Cloudy
Mostly Cloudy
 Wind from calm
Wind: Calm
Temperature: 59°F , 15°C
Dew Point: 41°F , 5°C
Humidity: 51%
Barometer: 30.08 inHg , 1018.6 hPa
Clouds: Mostly Cloudy
Visibility: 10 miles , 16 km
Cloud details: Mostly Cloudy 9500 ft
2017/10/21 01:15 KCIC 210115Z AUTO 00000KT 10SM BKN095 15/05 A3008 RMK AO1
 
KOVE - Oroville, California, USA
Distance from station: NNE 30mi, 48km
Updated: Fri, 20-Oct-2017 5:53pm PDT
Clear
Clear
 Wind from SE
Wind: SE 7 mph , 11 km/h
Temperature: 61°F , 16°C
Dew Point: 46°F , 8°C
Humidity: 59%
Barometer: 30.08 inHg , 1018.6 hPa
Clouds: Clear
Visibility: 10 miles , 16 km
2017/10/21 00:53 KOVE 210053Z AUTO 13006KT 10SM CLR 16/08 A3008 RMK AO2 SLP189 T01610083
KSIY - Montague/Siskiyo, California, USA
Distance from station: N 210mi, 337km
Updated: Fri, 20-Oct-2017 5:53pm PDT
Mostly Cloudy
Mostly Cloudy
 Wind from WNW
Wind: WNW 13 mph , 20 km/h
Temperature: 46°F , 8°C
Wind Chill: 40°F , 4°C
Dew Point: 36°F , 2°C
Humidity: 66%
Barometer: 30.07 inHg , 1018.3 hPa
Clouds: Mostly Cloudy
Visibility: 10 miles , 16 km
Cloud details: Mostly Cloudy 5500 ft
Mostly Cloudy 7000 ft
2017/10/21 00:53 KSIY 210053Z AUTO 29011KT 10SM BKN055 BKN070 08/02 A3007 RMK AO2 SLP195 T00830017
 
KMHS - Mount Shasta, California, USA
Distance from station: N 174mi, 280km
Updated: Fri, 20-Oct-2017 5:56pm PDT
Clear
Clear
 Wind from calm
Wind: Calm
Temperature: 45°F , 7°C
Dew Point: 32°F , 0°C
Humidity: 61%
Barometer: 30.03 inHg , 1016.9 hPa
Clouds: Clear
Visibility: 10 miles , 16 km
2017/10/21 00:56 KMHS 210056Z AUTO 00000KT 10SM CLR 07/00 A3003 RMK AO2 SLPNO T00720000 $
KO86 - Trinity Center, California, USA
Distance from station: NW 180mi, 289km
Updated: Fri, 20-Oct-2017 3:55pm PDT
NOT Current

 Wind from WSW
Wind: WSW 9 mph , 15 km/h
Temperature: 54°F , 12°C
Dew Point: 32°F , 0°C
Humidity: 44%
Barometer: 30.05 inHg , 1017.6 hPa
Visibility: 10 miles , 16 km
2017/10/20 22:55 KO86 202255Z AUTO 24008KT 190V260 10SM 12/00 A3005 RMK AO1
 
KRDD - Redding, California, USA
Distance from station: N 117mi, 188km
Updated: Fri, 20-Oct-2017 5:53pm PDT
Partly Cloudy
Partly Cloudy
 Wind from calm
Wind: Calm
Temperature: 61°F , 16°C
Dew Point: 43°F , 6°C
Humidity: 52%
Barometer: 30.05 inHg , 1017.6 hPa
Clouds: Partly Cloudy
Visibility: 10 miles , 16 km
Cloud details: Partly Cloudy 6500 ft
2017/10/21 00:53 KRDD 210053Z 00000KT 10SM SCT065 16/06 A3005 RMK AO2 SLP174 T01610061
KRBL - Red Bluff, California, USA
Distance from station: N 86mi, 138km
Updated: Fri, 20-Oct-2017 5:54pm PDT
Mostly Cloudy
Mostly Cloudy
 Wind from SSW
Wind: SSW 9 mph , 15 km/h
Temperature: 57°F , 14°C
Dew Point: 45°F , 7°C
Humidity: 63%
Barometer: 30.08 inHg , 1018.6 hPa
Clouds: Mostly Cloudy
Visibility: 10 miles , 16 km
Cloud details: Mostly Cloudy 6000 ft
2017/10/21 00:54 KRBL 210054Z AUTO 21008KT 10SM BKN060 14/07 A3008 RMK AO2 SLP184 T01440067
 
KCEC - Crescent City, California, USA
Distance from station: NW 328mi, 527km
Updated: Fri, 20-Oct-2017 5:56pm PDT
Partly Cloudy
Partly Cloudy
 Wind from SSE
Wind: SSE 10 mph , 17 km/h
Temperature: 54°F , 12°C
Dew Point: 50°F , 10°C
Humidity: 88%
Barometer: 30.13 inHg , 1020.3 hPa
Clouds: Partly Cloudy
Visibility: 8 miles , 13 km
Cloud details: Partly Cloudy 2200 ft
2017/10/21 00:56 KCEC 210056Z AUTO 16009KT 8SM SCT022 12/10 A3013 RMK AO2 SLP203 T01170100
KACV - Arcata/Eureka, California, USA
Distance from station: NW 256mi, 411km
Updated: Fri, 20-Oct-2017 6:12pm PDT
Haze, Mostly cloudy
Haze, Mostly cloudy
 Wind from calm
Wind: Calm
Temperature: 54°F , 12°C
Dew Point: 46°F , 8°C
Humidity: 77%
Barometer: 30.14 inHg , 1020.7 hPa
Summary: Haze
Clouds: Mostly Cloudy
Visibility: 4 miles , 6 km
Cloud details: Mostly Cloudy 2300 ft
2017/10/21 01:12 KACV 210112Z AUTO 00000KT 4SM HZ BKN023 12/08 A3014 RMK AO2 T01170078
 
KFOT - Fortuna, California, USA
Distance from station: NW 244mi, 392km
Updated: Fri, 20-Oct-2017 5:55pm PDT
Clear
Clear
 Wind from NNW
Wind: NNW 6 mph , 9 km/h
Temperature: 55°F , 13°C
Dew Point: 43°F , 6°C
Humidity: 63%
Barometer: 30.13 inHg , 1020.3 hPa
Clouds: Clear
Visibility: 10 miles , 16 km
2017/10/21 00:55 KFOT 210055Z AUTO 33005KT 10SM CLR 13/06 A3013 RMK AO1
KAAT - Alturas, California, USA
Distance from station: NE 248mi, 399km
Updated: Fri, 20-Oct-2017 6:13pm PDT
Light snow, Mist, Overcast
Light snow, Mist, Overcast
 Wind from calm
Wind: Calm
Temperature: 34°F , 1°C
Dew Point: 32°F , 0°C
Humidity: 93%
Barometer: 30.06 inHg , 1017.9 hPa
Summary: Light snow, Mist
Clouds: Overcast
Visibility: 1 3/4 miles , 5 km
Cloud details: Overcast 1400 ft
2017/10/21 01:13 KAAT 210113Z AUTO 00000KT 1 3/4SM -SN BR OVC014 01/00 A3006 RMK AO2 P0004 T00060000 $
 
KSVE - Susanville Muni, California, USA
Distance from station: NE 144mi, 231km
Updated: Fri, 20-Oct-2017 6:15pm PDT
Mostly Cloudy
Mostly Cloudy
 Wind from W
Wind: W 13 mph , 20 km/h
Temperature: 45°F , 7°C
Wind Chill: 39°F , 4°C
Dew Point: 32°F , 0°C
Humidity: 61%
Barometer: 30.06 inHg , 1017.9 hPa
Clouds: Mostly Cloudy
Visibility: 10 miles , 16 km
Cloud details: Mostly Cloudy 5500 ft
Mostly Cloudy 7000 ft
2017/10/21 01:15 KSVE 210115Z AUTO 28011KT 10SM BKN055 BKN070 07/00 A3006 RMK AO2
KGOO - Grass Valley, California, USA
Distance from station: E 35mi, 56km
Updated: Fri, 20-Oct-2017 5:55pm PDT
Clear
Clear
 Wind from calm
Wind: Calm
Temperature: 46°F , 8°C
Dew Point: 39°F , 4°C
Humidity: 76%
Barometer: 30.09 inHg , 1019 hPa
Clouds: Clear
Visibility: 10 miles , 16 km
2017/10/21 00:55 KGOO 210055Z AUTO 00000KT 10SM CLR 08/04 A3009 RMK AO1
 
KBLU - Blue Canyon, California, USA
Distance from station: ENE 68mi, 109km
Updated: Fri, 20-Oct-2017 5:59pm PDT
Overcast
Overcast
 Wind from varies
Wind: varies 3 mph , 6 km/h
Temperature: 36°F , 2°C
Dew Point: 36°F , 2°C
Humidity: 100%
Barometer: 30.09 inHg , 1019 hPa
Clouds: Overcast
Visibility: 10 miles , 16 km
Cloud details: Overcast 300 ft
2017/10/21 00:59 KBLU 210059Z AUTO VRB03KT 10SM OVC003 02/02 A3009 RMK AO2 T00220017 TSNO
KTRK - Truckee Tahoe, California, USA
Distance from station: ESE 93mi, 149km
Updated: Fri, 20-Oct-2017 4:45pm PDT
NOT Current
Partly Cloudy
Partly Cloudy
 Wind from WSW
Wind: WSW 7 mph , 11 km/h
Temperature: 39°F , 4°C
Wind Chill: 34°F , 1°C
Dew Point: 27°F , -3°C
Humidity: 61%
Barometer: 30.06 inHg , 1017.9 hPa
Clouds: Partly Cloudy
Visibility: 10 miles , 16 km
Cloud details: Partly Cloudy 3500 ft
2017/10/20 23:45 KTRK 202345Z 24006KT 10SM SCT035 04/M03 A3006